sensor_id;sensor_type;location;lat;lon;timestamp;P1;durP1;ratioP1;P2;durP2;ratioP2
54953;SDS011;40855;51.072;5.402;2023-01-04T00:00:35;5.63;;;1.30;;
54953;SDS011;40855;51.072;5.402;2023-01-04T00:03:00;4.95;;;1.15;;
54953;SDS011;40855;51.072;5.402;2023-01-04T00:05:26;3.28;;;1.10;;
54953;SDS011;40855;51.072;5.402;2023-01-04T00:07:52;5.70;;;1.42;;
54953;SDS011;40855;51.072;5.402;2023-01-04T00:10:18;7.68;;;1.83;;
54953;SDS011;40855;51.072;5.402;2023-01-04T00:12:43;8.32;;;1.52;;
54953;SDS011;40855;51.072;5.402;2023-01-04T00:15:09;4.00;;;1.42;;
54953;SDS011;40855;51.072;5.402;2023-01-04T00:17:35;10.95;;;1.52;;
54953;SDS011;40855;51.072;5.402;2023-01-04T00:20:01;2.63;;;1.10;;
54953;SDS011;40855;51.072;5.402;2023-01-04T00:22:27;3.85;;;1.42;;
54953;SDS011;40855;51.072;5.402;2023-01-04T00:24:53;5.38;;;1.42;;
54953;SDS011;40855;51.072;5.402;2023-01-04T00:27:18;5.60;;;1.25;;
54953;SDS011;40855;51.072;5.402;2023-01-04T00:29:44;4.70;;;1.38;;
54953;SDS011;40855;51.072;5.402;2023-01-04T00:32:10;8.38;;;1.60;;
54953;SDS011;40855;51.072;5.402;2023-01-04T00:34:35;10.32;;;0.93;;
54953;SDS011;40855;51.072;5.402;2023-01-04T00:37:01;11.57;;;1.50;;
54953;SDS011;40855;51.072;5.402;2023-01-04T00:39:27;4.85;;;1.42;;
54953;SDS011;40855;51.072;5.402;2023-01-04T00:41:53;8.60;;;1.90;;
54953;SDS011;40855;51.072;5.402;2023-01-04T00:46:59;7.22;;;1.52;;
54953;SDS011;40855;51.072;5.402;2023-01-04T00:49:25;5.30;;;1.02;;
54953;SDS011;40855;51.072;5.402;2023-01-04T00:51:52;7.72;;;1.23;;
54953;SDS011;40855;51.072;5.402;2023-01-04T00:54:18;3.55;;;1.10;;
54953;SDS011;40855;51.072;5.402;2023-01-04T00:56:45;6.65;;;1.23;;
54953;SDS011;40855;51.072;5.402;2023-01-04T00:59:11;4.75;;;1.60;;
54953;SDS011;40855;51.072;5.402;2023-01-04T01:01:38;6.78;;;1.20;;
54953;SDS011;40855;51.072;5.402;2023-01-04T01:04:05;2.97;;;0.95;;
54953;SDS011;40855;51.072;5.402;2023-01-04T01:06:32;2.25;;;1.08;;
54953;SDS011;40855;51.072;5.402;2023-01-04T01:08:59;4.75;;;1.05;;
54953;SDS011;40855;51.072;5.402;2023-01-04T01:11:25;6.72;;;1.25;;
54953;SDS011;40855;51.072;5.402;2023-01-04T01:13:51;4.80;;;1.20;;
54953;SDS011;40855;51.072;5.402;2023-01-04T01:16:19;6.38;;;1.50;;
54953;SDS011;40855;51.072;5.402;2023-01-04T01:18:46;2.20;;;0.63;;
54953;SDS011;40855;51.072;5.402;2023-01-04T01:21:13;2.92;;;0.77;;
54953;SDS011;40855;51.072;5.402;2023-01-04T01:23:42;4.63;;;1.38;;
54953;SDS011;40855;51.072;5.402;2023-01-04T01:26:09;1.38;;;0.60;;
54953;SDS011;40855;51.072;5.402;2023-01-04T01:28:37;2.13;;;1.23;;
54953;SDS011;40855;51.072;5.402;2023-01-04T01:31:07;6.15;;;0.93;;
54953;SDS011;40855;51.072;5.402;2023-01-04T01:33:38;4.65;;;0.95;;
54953;SDS011;40855;51.072;5.402;2023-01-04T01:36:04;4.28;;;0.60;;
54953;SDS011;40855;51.072;5.402;2023-01-04T01:38:31;7.28;;;1.05;;
54953;SDS011;40855;51.072;5.402;2023-01-04T01:40:57;5.15;;;0.93;;
54953;SDS011;40855;51.072;5.402;2023-01-04T01:43:43;5.18;;;1.02;;
54953;SDS011;40855;51.072;5.402;2023-01-04T01:46:15;6.15;;;0.60;;
54953;SDS011;40855;51.072;5.402;2023-01-04T01:48:46;2.78;;;1.00;;
54953;SDS011;40855;51.072;5.402;2023-01-04T01:51:12;3.03;;;0.70;;
54953;SDS011;40855;51.072;5.402;2023-01-04T01:53:40;4.10;;;0.70;;
54953;SDS011;40855;51.072;5.402;2023-01-04T01:56:10;3.55;;;0.95;;
54953;SDS011;40855;51.072;5.402;2023-01-04T01:58:38;4.10;;;0.60;;
54953;SDS011;40855;51.072;5.402;2023-01-04T02:01:06;1.67;;;0.63;;
54953;SDS011;40855;51.072;5.402;2023-01-04T02:03:38;1.35;;;0.50;;
54953;SDS011;40855;51.072;5.402;2023-01-04T02:06:05;1.95;;;0.50;;
54953;SDS011;40855;51.072;5.402;2023-01-04T02:08:34;0.60;;;0.30;;
54953;SDS011;40855;51.072;5.402;2023-01-04T02:11:01;0.40;;;0.40;;
54953;SDS011;40855;51.072;5.402;2023-01-04T02:13:28;1.55;;;0.40;;
54953;SDS011;40855;51.072;5.402;2023-01-04T02:19:05;0.13;;;0.10;;
54953;SDS011;40855;51.072;5.402;2023-01-04T02:21:43;4.55;;;0.50;;
54953;SDS011;40855;51.072;5.402;2023-01-04T02:37:54;0.28;;;0.28;;
54953;SDS011;40855;51.072;5.402;2023-01-04T02:43:44;0.68;;;0.38;;
54953;SDS011;40855;51.072;5.402;2023-01-04T02:46:46;0.10;;;0.10;;
54953;SDS011;40855;51.072;5.402;2023-01-04T02:49:33;0.68;;;0.38;;
54953;SDS011;40855;51.072;5.402;2023-01-04T02:52:18;0.70;;;0.65;;
54953;SDS011;40855;51.072;5.402;2023-01-04T02:54:45;0.32;;;0.32;;
54953;SDS011;40855;51.072;5.402;2023-01-04T03:07:07;0.17;;;0.17;;
54953;SDS011;40855;51.072;5.402;2023-01-04T03:09:41;0.90;;;0.10;;
54953;SDS011;40855;51.072;5.402;2023-01-04T03:12:15;1.15;;;0.20;;
54953;SDS011;40855;51.072;5.402;2023-01-04T03:15:00;0.20;;;0.20;;
54953;SDS011;40855;51.072;5.402;2023-01-04T03:17:32;0.20;;;0.20;;
54953;SDS011;40855;51.072;5.402;2023-01-04T03:20:07;0.22;;;0.22;;
54953;SDS011;40855;51.072;5.402;2023-01-04T03:22:36;0.98;;;0.43;;
54953;SDS011;40855;51.072;5.402;2023-01-04T03:25:26;1.40;;;0.10;;
54953;SDS011;40855;51.072;5.402;2023-01-04T03:28:20;1.27;;;0.22;;
54953;SDS011;40855;51.072;5.402;2023-01-04T03:31:18;0.20;;;0.20;;
54953;SDS011;40855;51.072;5.402;2023-01-04T03:34:06;0.32;;;0.32;;
54953;SDS011;40855;51.072;5.402;2023-01-04T03:36:53;0.40;;;0.20;;
54953;SDS011;40855;51.072;5.402;2023-01-04T03:39:50;0.52;;;0.38;;
54953;SDS011;40855;51.072;5.402;2023-01-04T03:43:13;0.50;;;0.40;;
54953;SDS011;40855;51.072;5.402;2023-01-04T03:49:10;1.35;;;0.45;;
54953;SDS011;40855;51.072;5.402;2023-01-04T03:51:37;0.82;;;0.30;;
54953;SDS011;40855;51.072;5.402;2023-01-04T03:54:05;0.30;;;0.30;;
54953;SDS011;40855;51.072;5.402;2023-01-04T03:56:37;0.50;;;0.47;;
54953;SDS011;40855;51.072;5.402;2023-01-04T03:59:05;0.20;;;0.20;;
54953;SDS011;40855;51.072;5.402;2023-01-04T04:01:33;0.60;;;0.28;;
54953;SDS011;40855;51.072;5.402;2023-01-04T04:04:00;1.10;;;0.55;;
54953;SDS011;40855;51.072;5.402;2023-01-04T04:06:45;1.02;;;0.60;;
54953;SDS011;40855;51.072;5.402;2023-01-04T04:09:29;1.42;;;0.60;;
54953;SDS011;40855;51.072;5.402;2023-01-04T04:11:55;6.05;;;0.90;;
54953;SDS011;40855;51.072;5.402;2023-01-04T04:14:21;4.00;;;0.52;;
54953;SDS011;40855;51.072;5.402;2023-01-04T04:16:46;0.47;;;0.45;;
54953;SDS011;40855;51.072;5.402;2023-01-04T04:19:12;3.42;;;0.80;;
54953;SDS011;40855;51.072;5.402;2023-01-04T04:21:38;2.75;;;0.65;;
54953;SDS011;40855;51.072;5.402;2023-01-04T04:24:04;0.82;;;0.80;;
54953;SDS011;40855;51.072;5.402;2023-01-04T04:26:30;1.48;;;0.73;;
54953;SDS011;40855;51.072;5.402;2023-01-04T04:28:56;2.70;;;0.88;;
54953;SDS011;40855;51.072;5.402;2023-01-04T04:31:21;1.45;;;0.80;;
54953;SDS011;40855;51.072;5.402;2023-01-04T04:33:47;1.02;;;0.60;;
54953;SDS011;40855;51.072;5.402;2023-01-04T04:36:13;2.80;;;1.00;;
54953;SDS011;40855;51.072;5.402;2023-01-04T04:38:38;0.60;;;0.60;;
54953;SDS011;40855;51.072;5.402;2023-01-04T04:41:05;0.98;;;0.85;;
54953;SDS011;40855;51.072;5.402;2023-01-04T04:43:53;0.93;;;0.50;;
54953;SDS011;40855;51.072;5.402;2023-01-04T04:46:19;1.55;;;0.82;;
54953;SDS011;40855;51.072;5.402;2023-01-04T04:48:44;2.80;;;0.63;;
54953;SDS011;40855;51.072;5.402;2023-01-04T04:51:10;1.30;;;0.85;;
54953;SDS011;40855;51.072;5.402;2023-01-04T04:53:36;1.67;;;1.20;;
54953;SDS011;40855;51.072;5.402;2023-01-04T04:56:01;2.17;;;1.10;;
54953;SDS011;40855;51.072;5.402;2023-01-04T04:58:27;1.55;;;1.02;;
54953;SDS011;40855;51.072;5.402;2023-01-04T05:00:53;2.15;;;1.10;;
54953;SDS011;40855;51.072;5.402;2023-01-04T05:03:19;0.82;;;0.82;;
54953;SDS011;40855;51.072;5.402;2023-01-04T05:05:44;1.98;;;0.82;;
54953;SDS011;40855;51.072;5.402;2023-01-04T05:08:10;2.65;;;1.50;;
54953;SDS011;40855;51.072;5.402;2023-01-04T05:10:36;1.23;;;0.70;;
54953;SDS011;40855;51.072;5.402;2023-01-04T05:13:03;3.15;;;1.40;;
54953;SDS011;40855;51.072;5.402;2023-01-04T05:15:34;6.28;;;1.30;;
54953;SDS011;40855;51.072;5.402;2023-01-04T05:18:02;9.35;;;1.20;;
54953;SDS011;40855;51.072;5.402;2023-01-04T05:20:29;1.42;;;1.33;;
54953;SDS011;40855;51.072;5.402;2023-01-04T05:22:55;4.10;;;1.42;;
54953;SDS011;40855;51.072;5.402;2023-01-04T05:25:20;1.48;;;1.15;;
54953;SDS011;40855;51.072;5.402;2023-01-04T05:27:46;4.80;;;1.10;;
54953;SDS011;40855;51.072;5.402;2023-01-04T05:30:12;5.15;;;1.30;;
54953;SDS011;40855;51.072;5.402;2023-01-04T05:32:58;1.75;;;0.80;;
54953;SDS011;40855;51.072;5.402;2023-01-04T05:35:24;2.85;;;0.70;;
54953;SDS011;40855;51.072;5.402;2023-01-04T05:37:50;1.73;;;0.60;;
54953;SDS011;40855;51.072;5.402;2023-01-04T05:40:16;1.02;;;0.80;;
54953;SDS011;40855;51.072;5.402;2023-01-04T05:42:42;2.15;;;1.33;;
54953;SDS011;40855;51.072;5.402;2023-01-04T05:45:08;1.15;;;0.73;;
54953;SDS011;40855;51.072;5.402;2023-01-04T05:47:34;1.60;;;0.95;;
54953;SDS011;40855;51.072;5.402;2023-01-04T05:50:01;1.45;;;1.15;;
54953;SDS011;40855;51.072;5.402;2023-01-04T05:52:27;0.25;;;0.25;;
54953;SDS011;40855;51.072;5.402;2023-01-04T05:54:53;1.30;;;1.08;;
54953;SDS011;40855;51.072;5.402;2023-01-04T05:57:19;1.65;;;0.63;;
54953;SDS011;40855;51.072;5.402;2023-01-04T05:59:45;1.48;;;0.40;;
54953;SDS011;40855;51.072;5.402;2023-01-04T06:02:18;1.13;;;1.00;;
54953;SDS011;40855;51.072;5.402;2023-01-04T06:04:49;0.65;;;0.45;;
54953;SDS011;40855;51.072;5.402;2023-01-04T06:07:16;2.47;;;0.80;;
54953;SDS011;40855;51.072;5.402;2023-01-04T06:09:42;1.25;;;0.60;;
54953;SDS011;40855;51.072;5.402;2023-01-04T06:12:08;2.38;;;0.70;;
54953;SDS011;40855;51.072;5.402;2023-01-04T06:14:34;0.77;;;0.52;;
54953;SDS011;40855;51.072;5.402;2023-01-04T06:17:00;1.50;;;0.93;;
54953;SDS011;40855;51.072;5.402;2023-01-04T06:19:26;3.20;;;0.90;;
54953;SDS011;40855;51.072;5.402;2023-01-04T06:21:52;0.77;;;0.50;;
54953;SDS011;40855;51.072;5.402;2023-01-04T06:24:18;2.85;;;1.08;;
54953;SDS011;40855;51.072;5.402;2023-01-04T06:26:44;2.25;;;1.10;;
54953;SDS011;40855;51.072;5.402;2023-01-04T06:29:10;3.40;;;1.00;;
54953;SDS011;40855;51.072;5.402;2023-01-04T06:31:36;0.68;;;0.68;;
54953;SDS011;40855;51.072;5.402;2023-01-04T06:34:02;2.85;;;1.15;;
54953;SDS011;40855;51.072;5.402;2023-01-04T06:36:27;2.65;;;0.70;;
54953;SDS011;40855;51.072;5.402;2023-01-04T06:38:55;2.97;;;0.95;;
54953;SDS011;40855;51.072;5.402;2023-01-04T06:41:22;3.78;;;1.02;;
54953;SDS011;40855;51.072;5.402;2023-01-04T06:43:47;5.85;;;1.13;;
54953;SDS011;40855;51.072;5.402;2023-01-04T06:46:13;1.95;;;0.88;;
54953;SDS011;40855;51.072;5.402;2023-01-04T06:48:39;4.75;;;0.85;;
54953;SDS011;40855;51.072;5.402;2023-01-04T06:51:05;2.55;;;0.80;;
54953;SDS011;40855;51.072;5.402;2023-01-04T06:53:30;1.95;;;0.95;;
54953;SDS011;40855;51.072;5.402;2023-01-04T06:55:56;1.40;;;0.80;;
54953;SDS011;40855;51.072;5.402;2023-01-04T06:58:22;3.00;;;0.70;;
54953;SDS011;40855;51.072;5.402;2023-01-04T07:00:49;3.53;;;0.95;;
54953;SDS011;40855;51.072;5.402;2023-01-04T07:03:19;1.60;;;0.88;;
54953;SDS011;40855;51.072;5.402;2023-01-04T07:05:44;1.85;;;0.60;;
54953;SDS011;40855;51.072;5.402;2023-01-04T07:08:10;4.10;;;1.00;;
54953;SDS011;40855;51.072;5.402;2023-01-04T07:10:37;1.60;;;0.75;;
54953;SDS011;40855;51.072;5.402;2023-01-04T07:13:03;2.30;;;0.80;;
54953;SDS011;40855;51.072;5.402;2023-01-04T07:15:30;2.85;;;0.82;;
54953;SDS011;40855;51.072;5.402;2023-01-04T07:17:55;0.43;;;0.40;;
54953;SDS011;40855;51.072;5.402;2023-01-04T07:20:21;0.98;;;0.82;;
54953;SDS011;40855;51.072;5.402;2023-01-04T07:22:47;1.25;;;0.73;;
54953;SDS011;40855;51.072;5.402;2023-01-04T07:25:13;1.10;;;0.95;;
54953;SDS011;40855;51.072;5.402;2023-01-04T07:27:39;2.75;;;0.80;;
54953;SDS011;40855;51.072;5.402;2023-01-04T07:30:04;1.92;;;0.50;;
54953;SDS011;40855;51.072;5.402;2023-01-04T07:32:30;4.78;;;0.70;;
54953;SDS011;40855;51.072;5.402;2023-01-04T07:34:56;3.28;;;1.00;;
54953;SDS011;40855;51.072;5.402;2023-01-04T07:37:22;1.20;;;0.80;;
54953;SDS011;40855;51.072;5.402;2023-01-04T07:39:48;2.00;;;0.95;;
54953;SDS011;40855;51.072;5.402;2023-01-04T07:42:13;1.90;;;0.30;;
54953;SDS011;40855;51.072;5.402;2023-01-04T07:44:39;0.98;;;0.75;;
54953;SDS011;40855;51.072;5.402;2023-01-04T07:47:05;1.92;;;0.88;;
54953;SDS011;40855;51.072;5.402;2023-01-04T07:49:31;5.43;;;1.15;;
54953;SDS011;40855;51.072;5.402;2023-01-04T07:51:57;2.70;;;0.60;;
54953;SDS011;40855;51.072;5.402;2023-01-04T07:54:22;2.47;;;0.80;;
54953;SDS011;40855;51.072;5.402;2023-01-04T07:56:48;0.32;;;0.32;;
54953;SDS011;40855;51.072;5.402;2023-01-04T07:59:15;2.25;;;1.00;;
54953;SDS011;40855;51.072;5.402;2023-01-04T08:01:42;0.93;;;0.65;;
54953;SDS011;40855;51.072;5.402;2023-01-04T08:04:09;7.95;;;0.88;;
54953;SDS011;40855;51.072;5.402;2023-01-04T08:06:36;0.93;;;0.68;;
54953;SDS011;40855;51.072;5.402;2023-01-04T08:09:06;3.90;;;1.10;;
54953;SDS011;40855;51.072;5.402;2023-01-04T08:11:32;5.38;;;1.10;;
54953;SDS011;40855;51.072;5.402;2023-01-04T08:13:58;3.03;;;1.00;;
54953;SDS011;40855;51.072;5.402;2023-01-04T08:16:28;2.20;;;0.90;;
54953;SDS011;40855;51.072;5.402;2023-01-04T08:18:59;0.40;;;0.40;;
54953;SDS011;40855;51.072;5.402;2023-01-04T08:21:27;4.10;;;1.02;;
54953;SDS011;40855;51.072;5.402;2023-01-04T08:23:54;4.47;;;1.30;;
54953;SDS011;40855;51.072;5.402;2023-01-04T08:26:20;1.40;;;0.75;;
54953;SDS011;40855;51.072;5.402;2023-01-04T08:28:47;0.85;;;0.70;;
54953;SDS011;40855;51.072;5.402;2023-01-04T08:31:15;1.23;;;1.05;;
54953;SDS011;40855;51.072;5.402;2023-01-04T08:33:46;1.50;;;0.75;;
54953;SDS011;40855;51.072;5.402;2023-01-04T08:36:25;2.13;;;0.55;;
54953;SDS011;40855;51.072;5.402;2023-01-04T08:38:56;2.10;;;0.50;;
54953;SDS011;40855;51.072;5.402;2023-01-04T08:41:24;0.43;;;0.38;;
54953;SDS011;40855;51.072;5.402;2023-01-04T08:43:50;1.67;;;0.50;;
54953;SDS011;40855;51.072;5.402;2023-01-04T08:46:16;0.60;;;0.52;;
54953;SDS011;40855;51.072;5.402;2023-01-04T08:48:42;0.88;;;0.40;;
54953;SDS011;40855;51.072;5.402;2023-01-04T08:51:09;1.30;;;0.70;;
54953;SDS011;40855;51.072;5.402;2023-01-04T08:53:37;1.10;;;0.50;;
54953;SDS011;40855;51.072;5.402;2023-01-04T08:56:03;1.65;;;0.40;;
54953;SDS011;40855;51.072;5.402;2023-01-04T08:58:30;0.60;;;0.45;;
54953;SDS011;40855;51.072;5.402;2023-01-04T09:01:00;5.38;;;0.85;;
54953;SDS011;40855;51.072;5.402;2023-01-04T09:03:27;0.65;;;0.52;;
54953;SDS011;40855;51.072;5.402;2023-01-04T09:05:53;2.05;;;0.82;;
54953;SDS011;40855;51.072;5.402;2023-01-04T09:08:25;0.43;;;0.40;;
54953;SDS011;40855;51.072;5.402;2023-01-04T09:10:51;0.15;;;0.15;;
54953;SDS011;40855;51.072;5.402;2023-01-04T09:13:17;5.47;;;0.57;;
54953;SDS011;40855;51.072;5.402;2023-01-04T09:15:42;3.33;;;0.70;;
54953;SDS011;40855;51.072;5.402;2023-01-04T09:18:08;7.10;;;1.00;;
54953;SDS011;40855;51.072;5.402;2023-01-04T09:20:36;1.25;;;0.40;;
54953;SDS011;40855;51.072;5.402;2023-01-04T09:23:02;1.55;;;0.70;;
54953;SDS011;40855;51.072;5.402;2023-01-04T09:25:28;0.65;;;0.63;;
54953;SDS011;40855;51.072;5.402;2023-01-04T09:27:53;0.40;;;0.40;;
54953;SDS011;40855;51.072;5.402;2023-01-04T09:30:21;0.30;;;0.30;;
54953;SDS011;40855;51.072;5.402;2023-01-04T09:32:46;4.80;;;0.88;;
54953;SDS011;40855;51.072;5.402;2023-01-04T09:35:12;1.88;;;0.70;;
54953;SDS011;40855;51.072;5.402;2023-01-04T09:37:38;1.98;;;0.80;;
54953;SDS011;40855;51.072;5.402;2023-01-04T09:40:03;5.05;;;0.98;;
54953;SDS011;40855;51.072;5.402;2023-01-04T09:42:31;1.42;;;0.52;;
54953;SDS011;40855;51.072;5.402;2023-01-04T09:45:14;6.60;;;0.90;;
54953;SDS011;40855;51.072;5.402;2023-01-04T09:50:29;0.80;;;0.70;;
54953;SDS011;40855;51.072;5.402;2023-01-04T09:53:12;5.45;;;0.77;;
54953;SDS011;40855;51.072;5.402;2023-01-04T09:55:46;3.22;;;0.90;;
54953;SDS011;40855;51.072;5.402;2023-01-04T10:00:56;5.47;;;0.70;;
54953;SDS011;40855;51.072;5.402;2023-01-04T10:03:30;3.72;;;1.30;;
54953;SDS011;40855;51.072;5.402;2023-01-04T10:06:02;1.65;;;0.60;;
54953;SDS011;40855;51.072;5.402;2023-01-04T10:08:29;2.97;;;0.95;;
54953;SDS011;40855;51.072;5.402;2023-01-04T10:22:16;3.80;;;1.00;;
54953;SDS011;40855;51.072;5.402;2023-01-04T10:27:56;1.27;;;0.38;;
54953;SDS011;40855;51.072;5.402;2023-01-04T10:30:55;6.07;;;0.93;;
54953;SDS011;40855;51.072;5.402;2023-01-04T10:33:49;1.35;;;0.70;;
54953;SDS011;40855;51.072;5.402;2023-01-04T10:36:29;1.55;;;0.47;;
54953;SDS011;40855;51.072;5.402;2023-01-04T10:39:10;5.35;;;0.90;;
54953;SDS011;40855;51.072;5.402;2023-01-04T10:41:43;7.85;;;1.08;;
54953;SDS011;40855;51.072;5.402;2023-01-04T10:44:16;4.82;;;1.05;;
54953;SDS011;40855;51.072;5.402;2023-01-04T10:49:55;0.43;;;0.35;;
54953;SDS011;40855;51.072;5.402;2023-01-04T10:55:05;2.85;;;0.43;;
54953;SDS011;40855;51.072;5.402;2023-01-04T10:57:48;3.63;;;1.00;;
54953;SDS011;40855;51.072;5.402;2023-01-04T11:05:36;4.40;;;1.00;;
54953;SDS011;40855;51.072;5.402;2023-01-04T11:10:44;1.75;;;0.80;;
54953;SDS011;40855;51.072;5.402;2023-01-04T11:13:15;1.10;;;0.55;;
54953;SDS011;40855;51.072;5.402;2023-01-04T11:15:41;2.42;;;0.95;;
54953;SDS011;40855;51.072;5.402;2023-01-04T11:18:09;0.80;;;0.75;;
54953;SDS011;40855;51.072;5.402;2023-01-04T11:20:38;0.65;;;0.50;;
54953;SDS011;40855;51.072;5.402;2023-01-04T11:23:17;3.55;;;0.63;;
54953;SDS011;40855;51.072;5.402;2023-01-04T11:25:57;2.95;;;0.60;;
54953;SDS011;40855;51.072;5.402;2023-01-04T11:28:43;2.15;;;0.70;;
54953;SDS011;40855;51.072;5.402;2023-01-04T11:34:13;2.85;;;0.90;;
54953;SDS011;40855;51.072;5.402;2023-01-04T11:36:42;2.40;;;0.70;;
54953;SDS011;40855;51.072;5.402;2023-01-04T11:39:17;0.93;;;0.52;;
54953;SDS011;40855;51.072;5.402;2023-01-04T11:41:54;0.45;;;0.35;;
54953;SDS011;40855;51.072;5.402;2023-01-04T11:44:21;1.65;;;0.75;;
54953;SDS011;40855;51.072;5.402;2023-01-04T11:46:53;3.38;;;0.82;;
54953;SDS011;40855;51.072;5.402;2023-01-04T11:49:34;2.13;;;0.90;;
54953;SDS011;40855;51.072;5.402;2023-01-04T11:52:02;1.40;;;0.40;;
54953;SDS011;40855;51.072;5.402;2023-01-04T11:54:29;1.25;;;0.63;;
54953;SDS011;40855;51.072;5.402;2023-01-04T11:59:32;3.00;;;0.60;;
54953;SDS011;40855;51.072;5.402;2023-01-04T12:04:51;2.20;;;0.70;;
54953;SDS011;40855;51.072;5.402;2023-01-04T12:07:30;1.13;;;0.30;;
54953;SDS011;40855;51.072;5.402;2023-01-04T12:09:58;2.47;;;0.50;;
54953;SDS011;40855;51.072;5.402;2023-01-04T12:12:29;3.97;;;0.50;;
54953;SDS011;40855;51.072;5.402;2023-01-04T12:14:57;0.65;;;0.50;;
54953;SDS011;40855;51.072;5.402;2023-01-04T12:17:47;0.32;;;0.30;;
54953;SDS011;40855;51.072;5.402;2023-01-04T12:20:17;0.43;;;0.40;;
54953;SDS011;40855;51.072;5.402;2023-01-04T12:22:44;0.77;;;0.50;;
54953;SDS011;40855;51.072;5.402;2023-01-04T12:28:04;0.98;;;0.30;;
54953;SDS011;40855;51.072;5.402;2023-01-04T12:41:21;0.68;;;0.30;;
54953;SDS011;40855;51.072;5.402;2023-01-04T12:43:48;0.68;;;0.40;;
54953;SDS011;40855;51.072;5.402;2023-01-04T12:54:49;0.82;;;0.50;;
54953;SDS011;40855;51.072;5.402;2023-01-04T12:59:56;2.60;;;0.60;;
54953;SDS011;40855;51.072;5.402;2023-01-04T13:04:57;2.30;;;0.32;;
54953;SDS011;40855;51.072;5.402;2023-01-04T13:09:57;1.88;;;0.55;;
54953;SDS011;40855;51.072;5.402;2023-01-04T13:15:34;0.40;;;0.40;;
54953;SDS011;40855;51.072;5.402;2023-01-04T13:18:21;2.22;;;0.38;;
54953;SDS011;40855;51.072;5.402;2023-01-04T13:21:09;3.83;;;0.50;;
54953;SDS011;40855;51.072;5.402;2023-01-04T13:23:38;0.50;;;0.50;;
54953;SDS011;40855;51.072;5.402;2023-01-04T13:31:47;3.00;;;0.50;;
54953;SDS011;40855;51.072;5.402;2023-01-04T13:34:20;1.83;;;0.45;;
54953;SDS011;40855;51.072;5.402;2023-01-04T13:36:52;0.95;;;0.40;;
54953;SDS011;40855;51.072;5.402;2023-01-04T13:39:26;3.72;;;0.77;;
54953;SDS011;40855;51.072;5.402;2023-01-04T13:41:53;2.20;;;0.60;;
54953;SDS011;40855;51.072;5.402;2023-01-04T13:47:28;0.65;;;0.55;;
54953;SDS011;40855;51.072;5.402;2023-01-04T13:50:03;0.50;;;0.50;;
54953;SDS011;40855;51.072;5.402;2023-01-04T13:52:30;3.20;;;0.55;;
54953;SDS011;40855;51.072;5.402;2023-01-04T13:57:55;1.85;;;0.90;;
54953;SDS011;40855;51.072;5.402;2023-01-04T14:00:26;0.28;;;0.28;;
54953;SDS011;40855;51.072;5.402;2023-01-04T14:03:04;0.75;;;0.70;;
54953;SDS011;40855;51.072;5.402;2023-01-04T14:05:52;1.73;;;0.68;;
54953;SDS011;40855;51.072;5.402;2023-01-04T14:08:30;1.55;;;0.50;;
54953;SDS011;40855;51.072;5.402;2023-01-04T14:11:24;0.50;;;0.30;;
54953;SDS011;40855;51.072;5.402;2023-01-04T14:14:21;0.47;;;0.22;;
54953;SDS011;40855;51.072;5.402;2023-01-04T14:16:51;0.40;;;0.40;;
54953;SDS011;40855;51.072;5.402;2023-01-04T14:19:50;1.30;;;0.43;;
54953;SDS011;40855;51.072;5.402;2023-01-04T14:25:00;0.30;;;0.30;;
54953;SDS011;40855;51.072;5.402;2023-01-04T14:27:45;6.45;;;0.60;;
54953;SDS011;40855;51.072;5.402;2023-01-04T14:35:22;3.17;;;0.60;;
54953;SDS011;40855;51.072;5.402;2023-01-04T14:37:48;1.55;;;0.80;;
54953;SDS011;40855;51.072;5.402;2023-01-04T14:40:25;1.35;;;0.50;;
54953;SDS011;40855;51.072;5.402;2023-01-04T14:42:53;2.17;;;0.47;;
54953;SDS011;40855;51.072;5.402;2023-01-04T14:45:19;1.58;;;0.65;;
54953;SDS011;40855;51.072;5.402;2023-01-04T14:47:45;0.65;;;0.50;;
54953;SDS011;40855;51.072;5.402;2023-01-04T14:50:14;1.95;;;0.45;;
54953;SDS011;40855;51.072;5.402;2023-01-04T14:52:48;1.85;;;0.40;;
54953;SDS011;40855;51.072;5.402;2023-01-04T14:55:18;2.22;;;0.43;;
54953;SDS011;40855;51.072;5.402;2023-01-04T14:57:44;1.25;;;0.50;;
54953;SDS011;40855;51.072;5.402;2023-01-04T15:00:14;2.50;;;0.50;;
54953;SDS011;40855;51.072;5.402;2023-01-04T15:02:40;2.70;;;0.77;;
54953;SDS011;40855;51.072;5.402;2023-01-04T15:05:06;15.48;;;1.17;;
54953;SDS011;40855;51.072;5.402;2023-01-04T15:07:33;26.90;;;7.10;;
54953;SDS011;40855;51.072;5.402;2023-01-04T15:10:02;42.55;;;4.78;;
54953;SDS011;40855;51.072;5.402;2023-01-04T15:12:28;2.20;;;0.70;;
54953;SDS011;40855;51.072;5.402;2023-01-04T15:14:54;13.13;;;7.70;;
54953;SDS011;40855;51.072;5.402;2023-01-04T15:17:20;2.70;;;0.90;;
54953;SDS011;40855;51.072;5.402;2023-01-04T15:19:46;3.90;;;0.52;;
54953;SDS011;40855;51.072;5.402;2023-01-04T15:22:11;1.77;;;0.40;;
54953;SDS011;40855;51.072;5.402;2023-01-04T15:24:37;2.78;;;0.40;;
54953;SDS011;40855;51.072;5.402;2023-01-04T15:27:03;1.88;;;0.50;;
54953;SDS011;40855;51.072;5.402;2023-01-04T15:29:29;0.60;;;0.40;;
54953;SDS011;40855;51.072;5.402;2023-01-04T15:31:54;2.35;;;0.50;;
54953;SDS011;40855;51.072;5.402;2023-01-04T15:34:20;0.80;;;0.40;;
54953;SDS011;40855;51.072;5.402;2023-01-04T15:36:49;1.50;;;0.55;;
54953;SDS011;40855;51.072;5.402;2023-01-04T15:39:15;2.05;;;0.50;;
54953;SDS011;40855;51.072;5.402;2023-01-04T15:41:41;0.55;;;0.45;;
54953;SDS011;40855;51.072;5.402;2023-01-04T15:44:25;0.88;;;0.60;;
54953;SDS011;40855;51.072;5.402;2023-01-04T15:46:51;2.47;;;0.77;;
54953;SDS011;40855;51.072;5.402;2023-01-04T15:49:18;1.33;;;0.60;;
54953;SDS011;40855;51.072;5.402;2023-01-04T15:51:44;2.00;;;0.55;;
54953;SDS011;40855;51.072;5.402;2023-01-04T15:54:10;2.97;;;0.55;;
54953;SDS011;40855;51.072;5.402;2023-01-04T15:56:36;1.58;;;0.60;;
54953;SDS011;40855;51.072;5.402;2023-01-04T15:59:01;0.52;;;0.28;;
54953;SDS011;40855;51.072;5.402;2023-01-04T16:01:27;0.75;;;0.65;;
54953;SDS011;40855;51.072;5.402;2023-01-04T16:03:53;2.58;;;0.30;;
54953;SDS011;40855;51.072;5.402;2023-01-04T16:06:18;1.67;;;0.60;;
54953;SDS011;40855;51.072;5.402;2023-01-04T16:08:45;2.28;;;0.43;;
54953;SDS011;40855;51.072;5.402;2023-01-04T16:11:18;1.23;;;0.50;;
54953;SDS011;40855;51.072;5.402;2023-01-04T16:13:46;3.30;;;0.70;;
54953;SDS011;40855;51.072;5.402;2023-01-04T16:16:12;1.67;;;0.50;;
54953;SDS011;40855;51.072;5.402;2023-01-04T16:18:43;4.75;;;0.55;;
54953;SDS011;40855;51.072;5.402;2023-01-04T16:21:10;4.90;;;0.90;;
54953;SDS011;40855;51.072;5.402;2023-01-04T16:23:36;6.05;;;0.82;;
54953;SDS011;40855;51.072;5.402;2023-01-04T16:26:03;2.22;;;0.57;;
54953;SDS011;40855;51.072;5.402;2023-01-04T16:28:30;3.40;;;0.73;;
54953;SDS011;40855;51.072;5.402;2023-01-04T16:30:56;4.82;;;0.93;;
54953;SDS011;40855;51.072;5.402;2023-01-04T16:33:21;4.18;;;1.02;;
54953;SDS011;40855;51.072;5.402;2023-01-04T16:35:47;3.90;;;0.68;;
54953;SDS011;40855;51.072;5.402;2023-01-04T16:38:13;5.57;;;1.25;;
54953;SDS011;40855;51.072;5.402;2023-01-04T16:40:38;6.15;;;1.25;;
54953;SDS011;40855;51.072;5.402;2023-01-04T16:43:04;6.93;;;1.15;;
54953;SDS011;40855;51.072;5.402;2023-01-04T16:45:31;9.68;;;1.90;;
54953;SDS011;40855;51.072;5.402;2023-01-04T16:47:57;5.13;;;1.17;;
54953;SDS011;40855;51.072;5.402;2023-01-04T16:50:24;13.00;;;2.47;;
54953;SDS011;40855;51.072;5.402;2023-01-04T16:52:50;16.90;;;2.80;;
54953;SDS011;40855;51.072;5.402;2023-01-04T16:55:16;11.50;;;1.73;;
54953;SDS011;40855;51.072;5.402;2023-01-04T16:57:42;13.80;;;1.63;;
54953;SDS011;40855;51.072;5.402;2023-01-04T17:00:08;17.42;;;2.53;;
54953;SDS011;40855;51.072;5.402;2023-01-04T17:02:34;8.70;;;1.67;;
54953;SDS011;40855;51.072;5.402;2023-01-04T17:05:00;23.98;;;3.33;;
54953;SDS011;40855;51.072;5.402;2023-01-04T17:07:26;17.10;;;2.65;;
54953;SDS011;40855;51.072;5.402;2023-01-04T17:09:56;17.10;;;2.20;;
54953;SDS011;40855;51.072;5.402;2023-01-04T17:12:23;16.17;;;2.30;;